sensor_id;sensor_type;location;lat;lon;timestamp;temperature;humidity
71754;DHT22;59593;51.716;7.016;2024-02-21T00:01:39;9.40;99.90
71754;DHT22;59593;51.716;7.016;2024-02-21T00:04:04;9.40;99.90
71754;DHT22;59593;51.716;7.016;2024-02-21T00:06:31;9.40;99.90
71754;DHT22;59593;51.716;7.016;2024-02-21T00:08:56;9.30;99.90
71754;DHT22;59593;51.716;7.016;2024-02-21T00:11:22;9.30;99.90
71754;DHT22;59593;51.716;7.016;2024-02-21T00:13:48;9.40;99.90
71754;DHT22;59593;51.716;7.016;2024-02-21T00:16:13;9.50;99.90
71754;DHT22;59593;51.716;7.016;2024-02-21T00:18:41;9.40;99.90
71754;DHT22;59593;51.716;7.016;2024-02-21T00:21:06;9.40;99.90
71754;DHT22;59593;51.716;7.016;2024-02-21T00:23:32;9.40;99.90
71754;DHT22;59593;51.716;7.016;2024-02-21T00:25:57;9.40;99.90
71754;DHT22;59593;51.716;7.016;2024-02-21T00:28:23;9.30;99.90
71754;DHT22;59593;51.716;7.016;2024-02-21T00:30:48;9.30;99.90
71754;DHT22;59593;51.716;7.016;2024-02-21T00:33:16;9.30;99.90
71754;DHT22;59593;51.716;7.016;2024-02-21T00:35:42;9.30;99.90
71754;DHT22;59593;51.716;7.016;2024-02-21T00:38:08;9.40;99.90
71754;DHT22;59593;51.716;7.016;2024-02-21T00:40:34;9.40;99.90
71754;DHT22;59593;51.716;7.016;2024-02-21T00:43:00;9.30;99.90
71754;DHT22;59593;51.716;7.016;2024-02-21T00:45:26;9.30;99.90
71754;DHT22;59593;51.716;7.016;2024-02-21T00:47:51;9.30;99.90
71754;DHT22;59593;51.716;7.016;2024-02-21T00:50:17;9.30;99.90
71754;DHT22;59593;51.716;7.016;2024-02-21T00:52:42;9.40;99.90
71754;DHT22;59593;51.716;7.016;2024-02-21T00:55:09;9.40;99.90
71754;DHT22;59593;51.716;7.016;2024-02-21T00:57:34;9.30;99.90
71754;DHT22;59593;51.716;7.016;2024-02-21T01:00:01;9.30;99.90
71754;DHT22;59593;51.716;7.016;2024-02-21T01:02:27;9.30;99.90
71754;DHT22;59593;51.716;7.016;2024-02-21T01:04:53;9.30;99.90
71754;DHT22;59593;51.716;7.016;2024-02-21T01:07:18;9.30;99.90
71754;DHT22;59593;51.716;7.016;2024-02-21T01:09:44;9.30;99.90
71754;DHT22;59593;51.716;7.016;2024-02-21T01:12:10;9.30;99.90
71754;DHT22;59593;51.716;7.016;2024-02-21T01:14:35;9.30;99.90
71754;DHT22;59593;51.716;7.016;2024-02-21T01:17:01;9.30;99.90
71754;DHT22;59593;51.716;7.016;2024-02-21T01:19:26;9.20;99.90
71754;DHT22;59593;51.716;7.016;2024-02-21T01:21:52;9.30;99.90
71754;DHT22;59593;51.716;7.016;2024-02-21T01:24:18;9.30;99.90
71754;DHT22;59593;51.716;7.016;2024-02-21T01:26:43;9.30;99.90
71754;DHT22;59593;51.716;7.016;2024-02-21T01:29:09;9.40;99.90
71754;DHT22;59593;51.716;7.016;2024-02-21T01:31:34;9.30;99.90
71754;DHT22;59593;51.716;7.016;2024-02-21T01:34:00;9.30;99.90
71754;DHT22;59593;51.716;7.016;2024-02-21T01:36:26;9.30;99.90
71754;DHT22;59593;51.716;7.016;2024-02-21T01:38:51;9.30;99.90
71754;DHT22;59593;51.716;7.016;2024-02-21T01:41:17;9.30;99.90
71754;DHT22;59593;51.716;7.016;2024-02-21T01:43:42;9.40;99.90
71754;DHT22;59593;51.716;7.016;2024-02-21T01:46:08;9.30;99.90
71754;DHT22;59593;51.716;7.016;2024-02-21T01:48:34;9.40;99.90
71754;DHT22;59593;51.716;7.016;2024-02-21T01:51:01;9.30;99.90
71754;DHT22;59593;51.716;7.016;2024-02-21T01:53:30;9.40;99.90
71754;DHT22;59593;51.716;7.016;2024-02-21T01:55:58;9.40;99.90
71754;DHT22;59593;51.716;7.016;2024-02-21T01:58:24;9.30;99.90
71754;DHT22;59593;51.716;7.016;2024-02-21T02:00:50;9.30;99.90
71754;DHT22;59593;51.716;7.016;2024-02-21T02:03:16;9.40;99.90
71754;DHT22;59593;51.716;7.016;2024-02-21T02:05:49;9.40;99.90
71754;DHT22;59593;51.716;7.016;2024-02-21T02:08:16;9.40;99.90
71754;DHT22;59593;51.716;7.016;2024-02-21T02:10:42;9.30;99.90
71754;DHT22;59593;51.716;7.016;2024-02-21T02:13:08;9.40;99.90
71754;DHT22;59593;51.716;7.016;2024-02-21T02:15:47;9.30;99.90
71754;DHT22;59593;51.716;7.016;2024-02-21T02:18:14;9.30;99.90
71754;DHT22;59593;51.716;7.016;2024-02-21T02:20:40;9.30;99.90
71754;DHT22;59593;51.716;7.016;2024-02-21T02:23:21;9.30;99.90
71754;DHT22;59593;51.716;7.016;2024-02-21T02:25:47;9.30;99.90
71754;DHT22;59593;51.716;7.016;2024-02-21T02:28:17;9.30;99.90
71754;DHT22;59593;51.716;7.016;2024-02-21T02:30:44;9.30;99.90
71754;DHT22;59593;51.716;7.016;2024-02-21T02:33:09;9.20;99.90
71754;DHT22;59593;51.716;7.016;2024-02-21T02:35:35;9.20;99.90
71754;DHT22;59593;51.716;7.016;2024-02-21T02:38:04;9.30;99.90
71754;DHT22;59593;51.716;7.016;2024-02-21T02:40:34;9.20;99.90
71754;DHT22;59593;51.716;7.016;2024-02-21T02:43:00;9.20;99.90
71754;DHT22;59593;51.716;7.016;2024-02-21T02:45:26;9.20;99.90
71754;DHT22;59593;51.716;7.016;2024-02-21T02:47:55;9.10;99.90
71754;DHT22;59593;51.716;7.016;2024-02-21T02:50:22;9.20;99.90
71754;DHT22;59593;51.716;7.016;2024-02-21T02:52:48;9.20;99.90
71754;DHT22;59593;51.716;7.016;2024-02-21T02:55:14;9.10;99.90
71754;DHT22;59593;51.716;7.016;2024-02-21T02:57:39;9.10;99.90
71754;DHT22;59593;51.716;7.016;2024-02-21T03:00:07;9.20;99.90
71754;DHT22;59593;51.716;7.016;2024-02-21T03:02:34;9.20;99.90
71754;DHT22;59593;51.716;7.016;2024-02-21T03:04:59;9.20;99.90
71754;DHT22;59593;51.716;7.016;2024-02-21T03:07:25;9.20;99.90
71754;DHT22;59593;51.716;7.016;2024-02-21T03:09:51;9.30;99.90
71754;DHT22;59593;51.716;7.016;2024-02-21T03:12:17;9.20;99.90
71754;DHT22;59593;51.716;7.016;2024-02-21T03:14:53;9.20;99.90
71754;DHT22;59593;51.716;7.016;2024-02-21T03:17:18;9.30;99.90
71754;DHT22;59593;51.716;7.016;2024-02-21T03:19:44;9.30;99.90
71754;DHT22;59593;51.716;7.016;2024-02-21T03:22:10;9.30;99.90
71754;DHT22;59593;51.716;7.016;2024-02-21T03:24:35;9.30;99.90
71754;DHT22;59593;51.716;7.016;2024-02-21T03:27:01;9.30;99.90
71754;DHT22;59593;51.716;7.016;2024-02-21T03:29:26;9.20;99.90
71754;DHT22;59593;51.716;7.016;2024-02-21T03:31:52;9.40;99.90
71754;DHT22;59593;51.716;7.016;2024-02-21T03:34:18;9.30;99.90
71754;DHT22;59593;51.716;7.016;2024-02-21T03:36:43;9.20;99.90
71754;DHT22;59593;51.716;7.016;2024-02-21T03:39:09;9.30;99.90
71754;DHT22;59593;51.716;7.016;2024-02-21T03:41:35;9.30;99.90
71754;DHT22;59593;51.716;7.016;2024-02-21T03:44:01;9.30;99.90
71754;DHT22;59593;51.716;7.016;2024-02-21T03:46:27;9.40;99.90
71754;DHT22;59593;51.716;7.016;2024-02-21T03:48:53;9.40;99.90
71754;DHT22;59593;51.716;7.016;2024-02-21T03:51:18;9.40;99.90
71754;DHT22;59593;51.716;7.016;2024-02-21T03:53:44;9.30;99.90
71754;DHT22;59593;51.716;7.016;2024-02-21T03:56:09;9.30;99.90
71754;DHT22;59593;51.716;7.016;2024-02-21T03:58:35;9.40;99.90
71754;DHT22;59593;51.716;7.016;2024-02-21T04:01:01;9.30;99.90
71754;DHT22;59593;51.716;7.016;2024-02-21T04:03:27;9.30;99.90
71754;DHT22;59593;51.716;7.016;2024-02-21T04:05:53;9.30;99.90
71754;DHT22;59593;51.716;7.016;2024-02-21T04:08:18;9.30;99.90
71754;DHT22;59593;51.716;7.016;2024-02-21T04:10:44;9.30;99.90
71754;DHT22;59593;51.716;7.016;2024-02-21T04:13:10;9.30;99.90
71754;DHT22;59593;51.716;7.016;2024-02-21T04:15:35;9.30;99.90
71754;DHT22;59593;51.716;7.016;2024-02-21T04:18:01;9.30;99.90
71754;DHT22;59593;51.716;7.016;2024-02-21T04:20:28;9.30;99.90
71754;DHT22;59593;51.716;7.016;2024-02-21T04:22:55;9.40;99.90
71754;DHT22;59593;51.716;7.016;2024-02-21T04:25:20;9.30;99.90
71754;DHT22;59593;51.716;7.016;2024-02-21T04:27:46;9.30;99.90
71754;DHT22;59593;51.716;7.016;2024-02-21T04:30:12;9.40;99.90
71754;DHT22;59593;51.716;7.016;2024-02-21T04:32:38;9.40;99.90
71754;DHT22;59593;51.716;7.016;2024-02-21T04:35:04;9.40;99.90
71754;DHT22;59593;51.716;7.016;2024-02-21T04:37:30;9.30;99.90
71754;DHT22;59593;51.716;7.016;2024-02-21T04:39:56;9.40;99.90
71754;DHT22;59593;51.716;7.016;2024-02-21T04:42:22;9.40;99.90
71754;DHT22;59593;51.716;7.016;2024-02-21T04:44:47;9.40;99.90
71754;DHT22;59593;51.716;7.016;2024-02-21T04:47:13;9.40;99.90
71754;DHT22;59593;51.716;7.016;2024-02-21T04:49:39;9.40;99.90
71754;DHT22;59593;51.716;7.016;2024-02-21T04:52:05;9.30;99.90
71754;DHT22;59593;51.716;7.016;2024-02-21T04:54:30;9.30;99.90
71754;DHT22;59593;51.716;7.016;2024-02-21T04:56:56;9.30;99.90
71754;DHT22;59593;51.716;7.016;2024-02-21T04:59:22;9.30;99.90
71754;DHT22;59593;51.716;7.016;2024-02-21T05:01:47;9.30;99.90
71754;DHT22;59593;51.716;7.016;2024-02-21T05:04:13;9.40;99.90
71754;DHT22;59593;51.716;7.016;2024-02-21T05:06:39;9.40;99.90
71754;DHT22;59593;51.716;7.016;2024-02-21T05:09:06;9.40;99.90
71754;DHT22;59593;51.716;7.016;2024-02-21T05:11:32;9.30;99.90
71754;DHT22;59593;51.716;7.016;2024-02-21T05:13:58;9.30;99.90
71754;DHT22;59593;51.716;7.016;2024-02-21T05:16:23;9.30;99.90
71754;DHT22;59593;51.716;7.016;2024-02-21T05:18:49;9.40;99.90
71754;DHT22;59593;51.716;7.016;2024-02-21T05:21:14;9.40;99.90
71754;DHT22;59593;51.716;7.016;2024-02-21T05:23:40;9.40;99.90
71754;DHT22;59593;51.716;7.016;2024-02-21T05:26:06;9.40;99.90
71754;DHT22;59593;51.716;7.016;2024-02-21T05:28:32;9.30;99.90
71754;DHT22;59593;51.716;7.016;2024-02-21T05:30:57;9.40;99.90
71754;DHT22;59593;51.716;7.016;2024-02-21T05:33:23;9.40;99.90
71754;DHT22;59593;51.716;7.016;2024-02-21T05:35:49;9.40;99.90
71754;DHT22;59593;51.716;7.016;2024-02-21T05:38:15;9.30;99.90
71754;DHT22;59593;51.716;7.016;2024-02-21T05:40:41;9.40;99.90
71754;DHT22;59593;51.716;7.016;2024-02-21T05:43:09;9.40;99.90
71754;DHT22;59593;51.716;7.016;2024-02-21T05:45:35;9.30;99.90
71754;DHT22;59593;51.716;7.016;2024-02-21T05:48:01;9.40;99.90
71754;DHT22;59593;51.716;7.016;2024-02-21T05:50:28;9.40;99.90
71754;DHT22;59593;51.716;7.016;2024-02-21T05:52:57;9.40;99.90
71754;DHT22;59593;51.716;7.016;2024-02-21T05:55:22;9.50;99.90
71754;DHT22;59593;51.716;7.016;2024-02-21T05:57:48;9.40;99.90
71754;DHT22;59593;51.716;7.016;2024-02-21T06:00:15;9.40;99.90
71754;DHT22;59593;51.716;7.016;2024-02-21T06:02:41;9.40;99.90
71754;DHT22;59593;51.716;7.016;2024-02-21T06:05:07;9.40;99.90
71754;DHT22;59593;51.716;7.016;2024-02-21T06:07:34;9.40;99.90
71754;DHT22;59593;51.716;7.016;2024-02-21T06:10:02;9.40;99.90
71754;DHT22;59593;51.716;7.016;2024-02-21T06:12:28;9.30;99.90
71754;DHT22;59593;51.716;7.016;2024-02-21T06:14:54;9.30;99.90
71754;DHT22;59593;51.716;7.016;2024-02-21T06:17:20;9.40;99.90
71754;DHT22;59593;51.716;7.016;2024-02-21T06:19:45;9.30;99.90
71754;DHT22;59593;51.716;7.016;2024-02-21T06:22:11;9.30;99.90
71754;DHT22;59593;51.716;7.016;2024-02-21T06:24:37;9.30;99.90
71754;DHT22;59593;51.716;7.016;2024-02-21T06:27:06;9.30;99.90
71754;DHT22;59593;51.716;7.016;2024-02-21T06:29:32;9.30;99.90
71754;DHT22;59593;51.716;7.016;2024-02-21T06:31:59;9.40;99.90
71754;DHT22;59593;51.716;7.016;2024-02-21T06:34:24;9.40;99.90
71754;DHT22;59593;51.716;7.016;2024-02-21T06:36:50;9.40;99.90
71754;DHT22;59593;51.716;7.016;2024-02-21T06:39:16;9.40;99.90
71754;DHT22;59593;51.716;7.016;2024-02-21T06:41:42;9.30;99.90
71754;DHT22;59593;51.716;7.016;2024-02-21T06:44:08;9.20;99.90
71754;DHT22;59593;51.716;7.016;2024-02-21T06:46:34;9.40;99.90
71754;DHT22;59593;51.716;7.016;2024-02-21T06:49:00;9.30;99.90
71754;DHT22;59593;51.716;7.016;2024-02-21T06:51:26;9.30;99.90
71754;DHT22;59593;51.716;7.016;2024-02-21T06:53:53;9.30;99.90
71754;DHT22;59593;51.716;7.016;2024-02-21T06:56:18;9.30;99.90
71754;DHT22;59593;51.716;7.016;2024-02-21T06:58:44;9.30;99.90
71754;DHT22;59593;51.716;7.016;2024-02-21T07:01:10;9.30;99.90
71754;DHT22;59593;51.716;7.016;2024-02-21T07:03:36;9.30;99.90
71754;DHT22;59593;51.716;7.016;2024-02-21T07:06:02;9.30;99.90
71754;DHT22;59593;51.716;7.016;2024-02-21T07:08:27;9.40;99.90
71754;DHT22;59593;51.716;7.016;2024-02-21T07:10:53;9.20;99.90
71754;DHT22;59593;51.716;7.016;2024-02-21T07:13:19;9.30;99.90
71754;DHT22;59593;51.716;7.016;2024-02-21T07:15:44;9.30;99.90
71754;DHT22;59593;51.716;7.016;2024-02-21T07:18:10;9.30;99.90
71754;DHT22;59593;51.716;7.016;2024-02-21T07:20:36;9.30;99.90
71754;DHT22;59593;51.716;7.016;2024-02-21T07:23:07;9.30;99.90
71754;DHT22;59593;51.716;7.016;2024-02-21T07:25:33;9.30;99.90
71754;DHT22;59593;51.716;7.016;2024-02-21T07:27:58;9.30;99.90
71754;DHT22;59593;51.716;7.016;2024-02-21T07:30:24;9.40;99.90
71754;DHT22;59593;51.716;7.016;2024-02-21T07:32:50;9.40;99.90
71754;DHT22;59593;51.716;7.016;2024-02-21T07:35:17;9.40;99.90
71754;DHT22;59593;51.716;7.016;2024-02-21T07:37:43;9.50;99.90
71754;DHT22;59593;51.716;7.016;2024-02-21T07:40:16;9.40;99.90
71754;DHT22;59593;51.716;7.016;2024-02-21T07:42:42;9.40;99.90
71754;DHT22;59593;51.716;7.016;2024-02-21T07:45:08;9.50;99.90
71754;DHT22;59593;51.716;7.016;2024-02-21T07:47:34;9.50;99.90
71754;DHT22;59593;51.716;7.016;2024-02-21T07:50:00;9.40;99.90
71754;DHT22;59593;51.716;7.016;2024-02-21T07:52:26;9.50;99.90
71754;DHT22;59593;51.716;7.016;2024-02-21T07:54:51;9.50;99.90
71754;DHT22;59593;51.716;7.016;2024-02-21T07:57:17;9.50;99.90
71754;DHT22;59593;51.716;7.016;2024-02-21T07:59:43;9.50;99.90
71754;DHT22;59593;51.716;7.016;2024-02-21T08:02:09;9.50;99.90
71754;DHT22;59593;51.716;7.016;2024-02-21T08:04:34;9.40;99.90
71754;DHT22;59593;51.716;7.016;2024-02-21T08:07:03;9.50;99.90
71754;DHT22;59593;51.716;7.016;2024-02-21T08:09:29;9.60;99.90
71754;DHT22;59593;51.716;7.016;2024-02-21T08:11:55;9.50;99.90
71754;DHT22;59593;51.716;7.016;2024-02-21T08:14:21;9.60;99.90
71754;DHT22;59593;51.716;7.016;2024-02-21T08:16:47;9.70;99.90
71754;DHT22;59593;51.716;7.016;2024-02-21T08:19:13;9.60;99.90
71754;DHT22;59593;51.716;7.016;2024-02-21T08:21:39;9.50;99.90
71754;DHT22;59593;51.716;7.016;2024-02-21T08:24:05;9.50;99.90
71754;DHT22;59593;51.716;7.016;2024-02-21T08:26:30;9.60;99.90
71754;DHT22;59593;51.716;7.016;2024-02-21T08:28:59;9.70;99.90
71754;DHT22;59593;51.716;7.016;2024-02-21T08:31:26;9.70;99.90
71754;DHT22;59593;51.716;7.016;2024-02-21T08:33:57;9.70;99.90
71754;DHT22;59593;51.716;7.016;2024-02-21T08:36:28;9.70;99.90
71754;DHT22;59593;51.716;7.016;2024-02-21T08:38:54;9.80;99.90
71754;DHT22;59593;51.716;7.016;2024-02-21T08:41:20;9.70;99.90
71754;DHT22;59593;51.716;7.016;2024-02-21T08:43:48;9.70;99.90
71754;DHT22;59593;51.716;7.016;2024-02-21T08:46:14;9.70;99.90
71754;DHT22;59593;51.716;7.016;2024-02-21T08:48:40;9.80;99.90
71754;DHT22;59593;51.716;7.016;2024-02-21T08:51:06;9.80;99.90
71754;DHT22;59593;51.716;7.016;2024-02-21T08:53:31;9.90;99.90
71754;DHT22;59593;51.716;7.016;2024-02-21T08:55:57;9.80;99.90
71754;DHT22;59593;51.716;7.016;2024-02-21T08:58:22;9.70;99.90
71754;DHT22;59593;51.716;7.016;2024-02-21T09:00:49;9.80;99.90
71754;DHT22;59593;51.716;7.016;2024-02-21T09:03:16;9.80;99.90
71754;DHT22;59593;51.716;7.016;2024-02-21T09:05:43;9.90;99.90
71754;DHT22;59593;51.716;7.016;2024-02-21T09:08:08;9.90;99.90
71754;DHT22;59593;51.716;7.016;2024-02-21T09:10:34;10.00;99.90
71754;DHT22;59593;51.716;7.016;2024-02-21T09:13:00;10.00;99.90
71754;DHT22;59593;51.716;7.016;2024-02-21T09:15:26;9.90;99.90
71754;DHT22;59593;51.716;7.016;2024-02-21T09:17:52;9.90;99.90
71754;DHT22;59593;51.716;7.016;2024-02-21T09:20:17;10.00;99.90
71754;DHT22;59593;51.716;7.016;2024-02-21T09:22:43;9.90;99.90
71754;DHT22;59593;51.716;7.016;2024-02-21T09:25:09;10.00;99.90
71754;DHT22;59593;51.716;7.016;2024-02-21T09:27:38;10.10;99.90
71754;DHT22;59593;51.716;7.016;2024-02-21T09:30:05;10.10;99.90
71754;DHT22;59593;51.716;7.016;2024-02-21T09:32:31;10.10;99.90
71754;DHT22;59593;51.716;7.016;2024-02-21T09:34:58;10.20;99.90
71754;DHT22;59593;51.716;7.016;2024-02-21T09:37:24;10.00;99.90
71754;DHT22;59593;51.716;7.016;2024-02-21T09:39:49;9.90;99.90
71754;DHT22;59593;51.716;7.016;2024-02-21T09:42:20;10.00;99.90
71754;DHT22;59593;51.716;7.016;2024-02-21T09:44:46;9.90;99.90
71754;DHT22;59593;51.716;7.016;2024-02-21T09:47:32;9.90;99.90
71754;DHT22;59593;51.716;7.016;2024-02-21T09:50:00;9.80;99.90
71754;DHT22;59593;51.716;7.016;2024-02-21T09:52:27;9.80;99.90
71754;DHT22;59593;51.716;7.016;2024-02-21T09:54:53;9.80;99.90
71754;DHT22;59593;51.716;7.016;2024-02-21T09:57:20;9.70;99.90
71754;DHT22;59593;51.716;7.016;2024-02-21T09:59:46;9.70;99.90
71754;DHT22;59593;51.716;7.016;2024-02-21T10:02:12;9.70;99.90
71754;DHT22;59593;51.716;7.016;2024-02-21T10:04:39;9.70;99.90
71754;DHT22;59593;51.716;7.016;2024-02-21T10:07:05;9.70;99.90
71754;DHT22;59593;51.716;7.016;2024-02-21T10:09:31;9.80;99.90
71754;DHT22;59593;51.716;7.016;2024-02-21T10:12:12;9.80;99.90
71754;DHT22;59593;51.716;7.016;2024-02-21T10:14:38;9.80;99.90
71754;DHT22;59593;51.716;7.016;2024-02-21T10:17:03;9.90;99.90
71754;DHT22;59593;51.716;7.016;2024-02-21T10:19:34;9.90;99.90
71754;DHT22;59593;51.716;7.016;2024-02-21T10:22:02;9.90;99.90
71754;DHT22;59593;51.716;7.016;2024-02-21T10:24:29;9.90;99.90
71754;DHT22;59593;51.716;7.016;2024-02-21T10:27:02;9.80;99.90
71754;DHT22;59593;51.716;7.016;2024-02-21T10:29:29;9.70;99.90
71754;DHT22;59593;51.716;7.016;2024-02-21T10:32:11;9.70;99.90
71754;DHT22;59593;51.716;7.016;2024-02-21T10:34:40;9.60;99.90
71754;DHT22;59593;51.716;7.016;2024-02-21T10:37:07;9.70;99.90
71754;DHT22;59593;51.716;7.016;2024-02-21T10:39:34;9.60;99.90
71754;DHT22;59593;51.716;7.016;2024-02-21T10:42:02;9.70;99.90
71754;DHT22;59593;51.716;7.016;2024-02-21T10:44:29;9.70;99.90
71754;DHT22;59593;51.716;7.016;2024-02-21T10:46:56;9.70;99.90
71754;DHT22;59593;51.716;7.016;2024-02-21T10:49:23;9.80;99.90
71754;DHT22;59593;51.716;7.016;2024-02-21T10:52:13;9.90;99.90
71754;DHT22;59593;51.716;7.016;2024-02-21T10:54:48;10.00;99.90
71754;DHT22;59593;51.716;7.016;2024-02-21T10:57:16;9.80;99.90
71754;DHT22;59593;51.716;7.016;2024-02-21T10:59:44;9.90;99.90
71754;DHT22;59593;51.716;7.016;2024-02-21T11:02:10;9.80;99.90
71754;DHT22;59593;51.716;7.016;2024-02-21T11:04:36;9.80;99.90
71754;DHT22;59593;51.716;7.016;2024-02-21T11:07:04;9.80;99.90
71754;DHT22;59593;51.716;7.016;2024-02-21T11:09:31;9.80;99.90
71754;DHT22;59593;51.716;7.016;2024-02-21T11:11:58;9.90;99.90
71754;DHT22;59593;51.716;7.016;2024-02-21T11:14:27;10.00;99.90
71754;DHT22;59593;51.716;7.016;2024-02-21T11:16:53;10.00;99.90
71754;DHT22;59593;51.716;7.016;2024-02-21T11:19:22;10.10;99.90
71754;DHT22;59593;51.716;7.016;2024-02-21T11:21:50;10.00;99.90
71754;DHT22;59593;51.716;7.016;2024-02-21T11:24:31;10.00;99.90
71754;DHT22;59593;51.716;7.016;2024-02-21T11:29:49;10.20;99.90
71754;DHT22;59593;51.716;7.016;2024-02-21T11:32:20;10.20;99.90
71754;DHT22;59593;51.716;7.016;2024-02-21T11:34:59;10.20;99.90
71754;DHT22;59593;51.716;7.016;2024-02-21T11:37:28;10.30;99.90
71754;DHT22;59593;51.716;7.016;2024-02-21T11:39:57;10.30;99.90
71754;DHT22;59593;51.716;7.016;2024-02-21T11:42:28;10.30;99.90
71754;DHT22;59593;51.716;7.016;2024-02-21T11:44:54;10.40;99.90
71754;DHT22;59593;51.716;7.016;2024-02-21T11:47:24;10.50;99.90
71754;DHT22;59593;51.716;7.016;2024-02-21T11:49:50;10.50;99.90
71754;DHT22;59593;51.716;7.016;2024-02-21T11:52:22;10.50;99.90
71754;DHT22;59593;51.716;7.016;2024-02-21T11:54:51;10.50;99.90
71754;DHT22;59593;51.716;7.016;2024-02-21T11:57:17;10.70;99.90
71754;DHT22;59593;51.716;7.016;2024-02-21T11:59:45;10.60;99.90
71754;DHT22;59593;51.716;7.016;2024-02-21T12:02:11;10.70;99.90
71754;DHT22;59593;51.716;7.016;2024-02-21T12:04:37;10.70;99.90
71754;DHT22;59593;51.716;7.016;2024-02-21T12:07:03;10.90;99.90
71754;DHT22;59593;51.716;7.016;2024-02-21T12:09:30;10.90;99.90
71754;DHT22;59593;51.716;7.016;2024-02-21T12:12:06;10.90;99.90
71754;DHT22;59593;51.716;7.016;2024-02-21T12:14:33;11.00;99.90
71754;DHT22;59593;51.716;7.016;2024-02-21T12:17:00;10.90;99.90
71754;DHT22;59593;51.716;7.016;2024-02-21T12:19:28;10.90;99.90
71754;DHT22;59593;51.716;7.016;2024-02-21T12:21:54;10.90;99.90
71754;DHT22;59593;51.716;7.016;2024-02-21T12:24:26;10.90;99.90
71754;DHT22;59593;51.716;7.016;2024-02-21T12:26:53;10.80;99.90
71754;DHT22;59593;51.716;7.016;2024-02-21T12:29:22;10.80;99.90
71754;DHT22;59593;51.716;7.016;2024-02-21T12:31:50;10.70;99.90
71754;DHT22;59593;51.716;7.016;2024-02-21T12:34:15;10.80;99.90
71754;DHT22;59593;51.716;7.016;2024-02-21T12:36:43;10.80;99.90
71754;DHT22;59593;51.716;7.016;2024-02-21T12:39:12;10.90;99.90
71754;DHT22;59593;51.716;7.016;2024-02-21T12:41:38;10.80;99.90
71754;DHT22;59593;51.716;7.016;2024-02-21T12:44:05;11.00;99.90
71754;DHT22;59593;51.716;7.016;2024-02-21T12:46:34;10.90;99.90
71754;DHT22;59593;51.716;7.016;2024-02-21T12:49:03;10.90;99.90
71754;DHT22;59593;51.716;7.016;2024-02-21T12:51:32;10.90;99.90
71754;DHT22;59593;51.716;7.016;2024-02-21T12:53:58;11.00;99.90
71754;DHT22;59593;51.716;7.016;2024-02-21T12:56:24;11.00;99.90
71754;DHT22;59593;51.716;7.016;2024-02-21T12:58:52;10.90;99.90
71754;DHT22;59593;51.716;7.016;2024-02-21T13:01:18;10.90;99.90
71754;DHT22;59593;51.716;7.016;2024-02-21T13:03:44;10.90;99.90
71754;DHT22;59593;51.716;7.016;2024-02-21T13:06:09;11.00;99.90
71754;DHT22;59593;51.716;7.016;2024-02-21T13:08:36;11.10;99.90
71754;DHT22;59593;51.716;7.016;2024-02-21T13:11:03;11.20;99.90
71754;DHT22;59593;51.716;7.016;2024-02-21T13:13:29;11.10;99.90
71754;DHT22;59593;51.716;7.016;2024-02-21T13:15:55;11.20;99.90
71754;DHT22;59593;51.716;7.016;2024-02-21T13:18:20;11.30;99.90
71754;DHT22;59593;51.716;7.016;2024-02-21T13:20:47;11.40;99.90
71754;DHT22;59593;51.716;7.016;2024-02-21T13:23:12;11.50;99.90
71754;DHT22;59593;51.716;7.016;2024-02-21T13:25:38;11.50;99.90
71754;DHT22;59593;51.716;7.016;2024-02-21T13:28:04;11.60;99.90
71754;DHT22;59593;51.716;7.016;2024-02-21T13:30:30;11.50;99.90
71754;DHT22;59593;51.716;7.016;2024-02-21T13:32:56;11.40;99.90
71754;DHT22;59593;51.716;7.016;2024-02-21T13:35:21;11.50;99.90
71754;DHT22;59593;51.716;7.016;2024-02-21T13:37:47;11.40;99.90
71754;DHT22;59593;51.716;7.016;2024-02-21T13:40:12;11.50;99.90
71754;DHT22;59593;51.716;7.016;2024-02-21T13:42:39;11.50;99.90
71754;DHT22;59593;51.716;7.016;2024-02-21T13:45:06;11.60;99.90
71754;DHT22;59593;51.716;7.016;2024-02-21T13:47:35;11.60;99.90
71754;DHT22;59593;51.716;7.016;2024-02-21T13:50:05;11.60;99.90
71754;DHT22;59593;51.716;7.016;2024-02-21T13:52:34;11.50;99.90
71754;DHT22;59593;51.716;7.016;2024-02-21T13:55:00;11.40;99.90
71754;DHT22;59593;51.716;7.016;2024-02-21T13:57:25;11.40;99.90
71754;DHT22;59593;51.716;7.016;2024-02-21T13:59:51;11.50;99.90
71754;DHT22;59593;51.716;7.016;2024-02-21T14:02:16;11.50;99.90
71754;DHT22;59593;51.716;7.016;2024-02-21T14:04:42;11.50;99.90
71754;DHT22;59593;51.716;7.016;2024-02-21T14:07:08;11.50;99.90
71754;DHT22;59593;51.716;7.016;2024-02-21T14:09:34;11.50;99.90
71754;DHT22;59593;51.716;7.016;2024-02-21T14:12:00;11.30;99.90
71754;DHT22;59593;51.716;7.016;2024-02-21T14:14:25;11.30;99.90
71754;DHT22;59593;51.716;7.016;2024-02-21T14:16:51;11.40;99.90
71754;DHT22;59593;51.716;7.016;2024-02-21T14:19:17;11.50;99.90
71754;DHT22;59593;51.716;7.016;2024-02-21T14:21:44;11.50;99.90
71754;DHT22;59593;51.716;7.016;2024-02-21T14:24:10;11.50;99.90
71754;DHT22;59593;51.716;7.016;2024-02-21T14:26:37;11.60;99.90
71754;DHT22;59593;51.716;7.016;2024-02-21T14:29:03;11.60;99.90
71754;DHT22;59593;51.716;7.016;2024-02-21T14:31:31;11.60;99.90
71754;DHT22;59593;51.716;7.016;2024-02-21T14:33:57;11.60;99.90
71754;DHT22;59593;51.716;7.016;2024-02-21T14:36:23;11.60;99.90
71754;DHT22;59593;51.716;7.016;2024-02-21T14:38:49;11.50;99.90
71754;DHT22;59593;51.716;7.016;2024-02-21T14:41:15;11.60;99.90
71754;DHT22;59593;51.716;7.016;2024-02-21T14:43:40;11.60;99.90
71754;DHT22;59593;51.716;7.016;2024-02-21T14:46:06;11.60;99.90
71754;DHT22;59593;51.716;7.016;2024-02-21T14:48:32;11.60;99.90
71754;DHT22;59593;51.716;7.016;2024-02-21T14:50:58;11.50;99.90
71754;DHT22;59593;51.716;7.016;2024-02-21T14:53:24;11.50;99.90
71754;DHT22;59593;51.716;7.016;2024-02-21T14:55:50;11.50;99.90
71754;DHT22;59593;51.716;7.016;2024-02-21T14:58:16;11.50;99.90
71754;DHT22;59593;51.716;7.016;2024-02-21T15:00:43;11.50;99.90
71754;DHT22;59593;51.716;7.016;2024-02-21T15:03:09;11.50;99.90
71754;DHT22;59593;51.716;7.016;2024-02-21T15:05:36;11.50;99.90
71754;DHT22;59593;51.716;7.016;2024-02-21T15:08:03;11.50;99.90
71754;DHT22;59593;51.716;7.016;2024-02-21T15:10:28;11.50;99.90
71754;DHT22;59593;51.716;7.016;2024-02-21T15:12:54;11.50;99.90
71754;DHT22;59593;51.716;7.016;2024-02-21T15:15:20;11.50;99.90
71754;DHT22;59593;51.716;7.016;2024-02-21T15:17:47;11.50;99.90
71754;DHT22;59593;51.716;7.016;2024-02-21T15:20:12;11.50;99.90
71754;DHT22;59593;51.716;7.016;2024-02-21T15:22:38;11.40;99.90
71754;DHT22;59593;51.716;7.016;2024-02-21T15:25:04;11.30;99.90
71754;DHT22;59593;51.716;7.016;2024-02-21T15:27:30;11.30;99.90
71754;DHT22;59593;51.716;7.016;2024-02-21T15:29:56;11.30;99.90
71754;DHT22;59593;51.716;7.016;2024-02-21T15:32:22;11.30;99.90
71754;DHT22;59593;51.716;7.016;2024-02-21T15:34:48;11.30;99.90
71754;DHT22;59593;51.716;7.016;2024-02-21T15:37:14;11.30;99.90
71754;DHT22;59593;51.716;7.016;2024-02-21T15:39:42;11.30;99.90
71754;DHT22;59593;51.716;7.016;2024-02-21T15:42:09;11.20;99.90